createdAt,value
2023-05-10T00:01:58.360Z,13.40
2023-05-10T00:05:59.186Z,13.40
2023-05-10T00:09:59.348Z,13.40
2023-05-10T00:14:02.158Z,13.30
2023-05-10T00:18:02.828Z,13.30
2023-05-10T00:22:03.719Z,13.20
2023-05-10T00:26:04.468Z,13.20
2023-05-10T00:30:09.148Z,13.10
2023-05-10T00:34:09.536Z,13.10
2023-05-10T00:38:10.644Z,13.10
2023-05-10T00:42:11.045Z,13.00
2023-05-10T00:46:14.548Z,13.00
2023-05-10T00:50:15.712Z,12.90
2023-05-10T00:54:18.338Z,12.90
2023-05-10T00:58:19.121Z,13.00
2023-05-10T01:02:22.115Z,13.00
2023-05-10T01:06:22.361Z,13.00
2023-05-10T01:10:23.161Z,13.00
2023-05-10T01:14:24.749Z,13.00
2023-05-10T01:18:29.127Z,13.00
2023-05-10T01:23:05.888Z,13.00
2023-05-10T01:27:40.174Z,13.00
2023-05-10T01:32:25.097Z,13.00
2023-05-10T01:36:35.082Z,13.00
2023-05-10T01:40:44.701Z,13.00
2023-05-10T01:44:56.826Z,12.90
2023-05-10T01:49:04.347Z,12.90
2023-05-10T01:53:10.612Z,12.90
2023-05-10T01:57:15.248Z,12.90
2023-05-10T02:01:17.602Z,12.90
2023-05-10T02:05:24.072Z,12.90
2023-05-10T02:09:27.747Z,12.90
2023-05-10T02:13:30.907Z,12.80
2023-05-10T02:17:34.457Z,12.60
2023-05-10T02:21:39.499Z,12.40
2023-05-10T02:25:41.555Z,12.20
2023-05-10T02:29:42.702Z,12.10
2023-05-10T02:33:46.110Z,12.10
2023-05-10T02:37:50.729Z,12.10
2023-05-10T02:41:53.854Z,12.20
2023-05-10T02:45:54.380Z,12.20
2023-05-10T02:49:54.818Z,12.20
2023-05-10T02:54:01.086Z,12.30
2023-05-10T02:58:04.926Z,12.30
2023-05-10T03:02:06.352Z,12.40
2023-05-10T03:06:06.942Z,12.40
2023-05-10T03:10:12.312Z,12.40
2023-05-10T03:14:29.148Z,12.40
2023-05-10T03:18:41.178Z,12.40
2023-05-10T03:22:53.795Z,12.50
2023-05-10T03:27:05.572Z,12.50
2023-05-10T03:31:08.227Z,12.40
2023-05-10T03:35:11.932Z,12.30
2023-05-10T03:39:12.435Z,12.20
2023-05-10T03:43:15.321Z,12.00
2023-05-10T03:47:16.128Z,11.80
2023-05-10T03:51:16.889Z,11.60
2023-05-10T03:55:17.383Z,11.50
2023-05-10T03:59:20.655Z,11.40
2023-05-10T04:03:21.474Z,11.30
2023-05-10T04:07:21.912Z,11.20
2023-05-10T04:11:23.130Z,11.20
2023-05-10T04:15:26.366Z,11.10
2023-05-10T04:19:26.912Z,11.10
2023-05-10T04:23:27.323Z,11.00
2023-05-10T04:27:27.803Z,11.00
2023-05-10T04:31:30.818Z,10.90
2023-05-10T04:35:31.139Z,10.80
2023-05-10T04:39:31.348Z,10.80
2023-05-10T04:43:31.877Z,10.80
2023-05-10T04:47:34.665Z,10.80
2023-05-10T04:51:35.395Z,10.70
2023-05-10T04:55:35.997Z,10.60
2023-05-10T04:59:36.196Z,10.60
2023-05-10T05:03:39.242Z,10.60
2023-05-10T05:07:39.620Z,10.70
2023-05-10T05:11:41.038Z,10.70
2023-05-10T05:15:41.329Z,10.80
2023-05-10T05:19:44.145Z,10.90
2023-05-10T05:23:44.368Z,10.90
2023-05-10T05:27:44.589Z,11.00
2023-05-10T05:31:44.907Z,11.00
2023-05-10T05:35:51.875Z,11.00
2023-05-10T05:39:52.766Z,11.10
2023-05-10T05:43:52.991Z,11.10
2023-05-10T05:47:53.331Z,11.20
2023-05-10T05:51:56.259Z,11.30
2023-05-10T05:55:58.302Z,11.50
2023-05-10T05:59:58.480Z,11.60
2023-05-10T06:03:58.878Z,11.70
2023-05-10T06:08:04.153Z,11.70
2023-05-10T06:12:04.374Z,11.80
2023-05-10T06:16:04.868Z,11.90
2023-05-10T06:20:05.163Z,11.90
2023-05-10T06:24:09.706Z,12.00
2023-05-10T06:28:09.887Z,12.10
2023-05-10T06:32:10.520Z,12.10
2023-05-10T06:36:11.111Z,12.10
2023-05-10T06:40:15.877Z,12.20
2023-05-10T06:44:16.727Z,12.30
2023-05-10T06:48:17.024Z,12.30
2023-05-10T06:52:17.248Z,12.40
2023-05-10T06:56:22.653Z,12.50
2023-05-10T07:00:23.894Z,12.60
2023-05-10T07:04:24.181Z,12.70
2023-05-10T07:08:24.396Z,12.90
2023-05-10T07:12:27.319Z,13.30
2023-05-10T07:16:27.538Z,13.50
2023-05-10T07:20:28.255Z,13.80
2023-05-10T07:24:28.683Z,13.90
2023-05-10T07:28:31.483Z,13.90
2023-05-10T07:32:31.824Z,14.00
2023-05-10T07:36:32.135Z,14.10
2023-05-10T07:40:33.164Z,14.00
2023-05-10T07:44:35.985Z,13.80
2023-05-10T07:48:36.113Z,13.60
2023-05-10T07:52:36.743Z,13.60
2023-05-10T07:56:37.424Z,13.80
2023-05-10T08:00:40.696Z,13.90
2023-05-10T08:04:41.280Z,13.90
2023-05-10T08:08:41.940Z,13.90
2023-05-10T08:12:42.383Z,13.90
2023-05-10T08:16:45.248Z,13.90
2023-05-10T08:20:45.579Z,13.80
2023-05-10T08:24:47.156Z,14.00
2023-05-10T08:28:47.652Z,14.80
2023-05-10T08:32:50.626Z,15.60
2023-05-10T08:36:51.697Z,16.50
2023-05-10T08:40:57.679Z,17.10
2023-05-10T08:45:00.904Z,17.40
2023-05-10T08:49:08.814Z,17.10
2023-05-10T08:53:14.355Z,16.60
2023-05-10T08:57:15.017Z,16.00
2023-05-10T09:01:17.533Z,15.40
2023-05-10T09:05:20.715Z,14.70
2023-05-10T09:09:21.860Z,14.40
2023-05-10T09:13:24.851Z,14.30
2023-05-10T09:17:28.356Z,14.50
2023-05-10T09:21:31.810Z,15.10
2023-05-10T09:25:34.364Z,15.60
2023-05-10T09:29:44.413Z,15.70
2023-05-10T09:33:48.879Z,15.70
2023-05-10T09:37:55.062Z,15.50
2023-05-10T09:41:55.332Z,15.30
2023-05-10T09:45:56.728Z,15.40
2023-05-10T09:49:59.493Z,15.50
2023-05-10T09:54:19.533Z,15.90
2023-05-10T09:58:19.837Z,16.40
2023-05-10T10:02:20.753Z,17.20
2023-05-10T10:06:30.219Z,18.10
2023-05-10T10:10:35.696Z,18.80
2023-05-10T10:14:36.454Z,18.40
2023-05-10T10:18:39.902Z,17.70
2023-05-10T10:22:41.431Z,16.80
2023-05-10T10:26:46.614Z,16.60
2023-05-10T10:30:50.851Z,17.10
2023-05-10T10:34:52.051Z,18.30
2023-05-10T10:39:04.392Z,18.80
2023-05-10T10:43:28.587Z,19.20
2023-05-10T10:47:34.435Z,19.30
2023-05-10T10:51:40.567Z,18.90
2023-05-10T10:55:51.244Z,18.90
2023-05-10T10:59:54.346Z,18.20
2023-05-10T11:04:22.295Z,17.50
2023-05-10T11:08:30.211Z,16.70
2023-05-10T11:12:30.481Z,15.80
2023-05-10T11:16:46.509Z,15.00
2023-05-10T11:20:47.998Z,14.50
2023-05-10T11:25:02.118Z,14.30
2023-05-10T11:29:05.574Z,14.20
2023-05-10T11:33:09.187Z,14.50
2023-05-10T11:37:09.538Z,14.70
2023-05-10T11:41:12.570Z,15.10
2023-05-10T11:45:14.357Z,15.60
2023-05-10T11:49:17.475Z,15.80
2023-05-10T11:53:17.887Z,16.30
2023-05-10T11:57:18.119Z,16.90
2023-05-10T12:01:18.463Z,17.30
2023-05-10T12:05:21.699Z,17.20
2023-05-10T12:09:35.337Z,17.20
2023-05-10T12:13:36.142Z,17.50
2023-05-10T12:17:37.784Z,17.30
2023-05-10T12:21:42.540Z,17.00
2023-05-10T12:25:44.286Z,16.50
2023-05-10T12:29:47.941Z,16.40
2023-05-10T12:33:52.718Z,16.20
2023-05-10T12:37:55.612Z,16.10
2023-05-10T12:41:56.309Z,16.30
2023-05-10T12:45:56.942Z,16.60
2023-05-10T12:49:57.226Z,16.80
2023-05-10T12:54:00.041Z,17.10
2023-05-10T12:58:00.620Z,17.60
2023-05-10T13:02:01.821Z,18.30
2023-05-10T13:06:02.017Z,18.70
2023-05-10T13:10:05.276Z,18.20
2023-05-10T13:14:07.208Z,17.70
2023-05-10T13:18:08.084Z,17.30
2023-05-10T13:22:08.546Z,16.70
2023-05-10T13:26:11.813Z,16.30
2023-05-10T13:30:13.959Z,16.10
2023-05-10T13:34:14.300Z,15.70
2023-05-10T13:38:14.911Z,15.50
2023-05-10T13:42:17.941Z,15.30
2023-05-10T13:46:18.877Z,15.20
2023-05-10T13:50:20.065Z,15.20
2023-05-10T13:54:21.508Z,15.30
2023-05-10T13:58:25.184Z,15.50
2023-05-10T14:02:27.046Z,15.60
2023-05-10T14:06:28.147Z,15.40
2023-05-10T14:10:28.410Z,15.40
2023-05-10T14:14:31.321Z,15.50
2023-05-10T14:18:31.838Z,15.60
2023-05-10T14:22:32.055Z,15.50
2023-05-10T14:26:32.444Z,15.50
2023-05-10T14:30:36.523Z,15.50
2023-05-10T14:34:36.875Z,15.70
2023-05-10T14:38:37.308Z,15.80
2023-05-10T14:42:37.579Z,15.70
2023-05-10T14:46:40.672Z,15.80
2023-05-10T14:50:43.726Z,15.80
2023-05-10T14:54:44.207Z,15.90
2023-05-10T14:58:44.382Z,15.90
2023-05-10T15:02:47.301Z,15.80
2023-05-10T15:06:48.312Z,15.70
2023-05-10T15:10:48.869Z,15.30
2023-05-10T15:14:49.160Z,15.10
2023-05-10T15:18:52.161Z,14.90
2023-05-10T15:22:52.422Z,15.10
2023-05-10T15:26:52.582Z,15.10
2023-05-10T15:30:53.512Z,14.80
2023-05-10T15:34:56.823Z,14.60
2023-05-10T15:38:57.796Z,14.50
2023-05-10T15:42:58.457Z,14.50
2023-05-10T15:46:59.653Z,14.50
2023-05-10T15:51:02.948Z,14.60
2023-05-10T15:55:13.122Z,14.70
2023-05-10T15:59:13.512Z,14.60
2023-05-10T16:03:14.707Z,14.40
2023-05-10T16:07:17.562Z,14.20
2023-05-10T16:11:17.841Z,14.00
2023-05-10T16:15:18.488Z,13.80
2023-05-10T16:19:19.124Z,13.70
2023-05-10T16:23:22.879Z,13.60
2023-05-10T16:27:23.232Z,13.40
2023-05-10T16:31:23.614Z,13.20
2023-05-10T16:35:24.251Z,13.00
2023-05-10T16:39:27.265Z,12.70
2023-05-10T16:43:27.424Z,12.50
2023-05-10T16:47:27.694Z,12.40
2023-05-10T16:51:28.040Z,12.40
2023-05-10T16:55:31.022Z,12.30
2023-05-10T16:59:31.795Z,12.30
2023-05-10T17:03:32.129Z,12.20
2023-05-10T17:07:32.436Z,12.00
2023-05-10T17:11:35.789Z,11.90
2023-05-10T17:15:36.166Z,11.80
2023-05-10T17:19:36.573Z,11.90
2023-05-10T17:23:36.742Z,11.90
2023-05-10T17:27:39.687Z,11.90
2023-05-10T17:31:40.330Z,11.90
2023-05-10T17:35:40.609Z,11.90
2023-05-10T17:39:40.903Z,11.90
2023-05-10T17:43:44.744Z,11.90
2023-05-10T17:47:45.252Z,11.90
2023-05-10T17:51:48.123Z,11.80
2023-05-10T17:55:48.501Z,11.80
2023-05-10T17:59:51.488Z,11.80
2023-05-10T18:03:53.064Z,11.90
2023-05-10T18:07:53.560Z,11.80
2023-05-10T18:11:54.169Z,11.80
2023-05-10T18:15:57.096Z,11.70
2023-05-10T18:19:57.554Z,11.70
2023-05-10T18:23:57.847Z,11.60
2023-05-10T18:27:58.306Z,11.50
2023-05-10T18:32:01.132Z,11.50
2023-05-10T18:36:02.692Z,11.50
2023-05-10T18:40:04.959Z,11.50
2023-05-10T18:44:05.678Z,11.40
2023-05-10T18:48:09.166Z,11.40
2023-05-10T18:52:09.619Z,11.40
2023-05-10T18:56:10.466Z,11.40
2023-05-10T19:00:13.279Z,11.40
2023-05-10T19:04:16.365Z,11.40
2023-05-10T19:08:16.831Z,11.40
2023-05-10T19:12:17.220Z,11.40
2023-05-10T19:16:20.272Z,11.40
2023-05-10T19:20:24.434Z,11.40
2023-05-10T19:24:25.979Z,11.40
2023-05-10T19:28:26.766Z,11.30
2023-05-10T19:32:27.196Z,11.30
2023-05-10T19:36:30.073Z,11.30
2023-05-10T19:40:30.413Z,11.40
2023-05-10T19:44:30.849Z,11.40
2023-05-10T19:48:31.903Z,11.40
2023-05-10T19:52:34.862Z,11.40
2023-05-10T19:56:35.674Z,11.40
2023-05-10T20:00:36.240Z,11.50
2023-05-10T20:04:36.799Z,11.50
2023-05-10T20:08:39.660Z,11.40
2023-05-10T20:12:39.937Z,11.40
2023-05-10T20:16:40.389Z,11.40
2023-05-10T20:20:40.825Z,11.40
2023-05-10T20:24:45.500Z,11.40
2023-05-10T20:28:46.770Z,11.50
2023-05-10T20:32:48.014Z,11.40
2023-05-10T20:36:48.370Z,11.40
2023-05-10T20:40:51.390Z,11.40
2023-05-10T20:44:51.977Z,11.40
2023-05-10T20:48:52.190Z,11.40
2023-05-10T20:52:53.218Z,11.30
2023-05-10T20:56:56.379Z,11.30
2023-05-10T21:00:56.662Z,11.30
2023-05-10T21:04:57.910Z,11.30
2023-05-10T21:08:58.503Z,11.30
2023-05-10T21:13:01.609Z,11.40
2023-05-10T21:17:01.793Z,11.40
2023-05-10T21:21:02.219Z,11.30
2023-05-10T21:25:02.484Z,11.30
2023-05-10T21:29:05.400Z,11.30
2023-05-10T21:33:06.013Z,11.30
2023-05-10T21:37:06.291Z,11.30
2023-05-10T21:41:10.404Z,11.30
2023-05-10T21:45:14.605Z,11.30
2023-05-10T21:49:14.865Z,11.30
2023-05-10T21:53:15.151Z,11.30
2023-05-10T21:57:15.429Z,11.30
2023-05-10T22:01:18.370Z,11.30
2023-05-10T22:05:19.611Z,11.30
2023-05-10T22:09:21.990Z,11.30
2023-05-10T22:13:22.222Z,11.30
2023-05-10T22:17:25.126Z,11.20
2023-05-10T22:21:26.063Z,11.20
2023-05-10T22:25:26.268Z,11.20
2023-05-10T22:29:26.574Z,11.20
2023-05-10T22:33:29.388Z,11.20
2023-05-10T22:37:29.657Z,11.20
2023-05-10T22:41:29.859Z,11.20
2023-05-10T22:45:30.602Z,11.20
2023-05-10T22:49:33.509Z,11.20
2023-05-10T22:53:33.739Z,11.20
2023-05-10T22:57:34.517Z,11.20
2023-05-10T23:01:34.876Z,11.20
2023-05-10T23:05:37.769Z,11.10
2023-05-10T23:09:37.926Z,11.20
2023-05-10T23:13:38.098Z,11.10
2023-05-10T23:17:38.214Z,11.20
2023-05-10T23:21:41.224Z,11.20
2023-05-10T23:25:41.818Z,11.10
2023-05-10T23:29:42.091Z,11.10
2023-05-10T23:33:42.255Z,11.10
2023-05-10T23:37:45.812Z,11.10
2023-05-10T23:41:46.135Z,11.10
2023-05-10T23:45:46.743Z,11.20
2023-05-10T23:49:47.106Z,11.10
2023-05-10T23:53:49.996Z,11.10
2023-05-10T23:57:50.200Z,11.00
